createdAt,value
2023-05-12T00:01:48.377Z,14.73
2023-05-12T00:04:15.083Z,14.76
2023-05-12T00:06:41.798Z,14.74
2023-05-12T00:09:08.390Z,14.73
2023-05-12T00:11:36.127Z,14.74
2023-05-12T00:14:02.752Z,14.74
2023-05-12T00:16:32.017Z,14.69
2023-05-12T00:18:58.787Z,14.66
2023-05-12T00:21:25.429Z,14.66
2023-05-12T00:23:52.170Z,14.66
2023-05-12T00:26:18.808Z,14.67
2023-05-12T00:28:47.637Z,14.69
2023-05-12T00:31:14.464Z,14.71
2023-05-12T00:33:43.318Z,14.69
2023-05-12T00:36:12.905Z,14.70
2023-05-12T00:38:39.866Z,14.71
2023-05-12T00:41:09.014Z,14.67
2023-05-12T00:43:36.124Z,14.64
2023-05-12T00:46:02.858Z,14.67
2023-05-12T00:48:31.876Z,14.69
2023-05-12T00:51:00.842Z,14.69
2023-05-12T00:53:32.674Z,14.74
2023-05-12T00:56:05.060Z,14.75
2023-05-12T00:58:32.254Z,14.77
2023-05-12T01:01:02.067Z,14.77
2023-05-12T01:03:29.466Z,14.73
2023-05-12T01:05:59.372Z,14.71
2023-05-12T01:08:26.137Z,14.71
2023-05-12T01:10:55.241Z,14.70
2023-05-12T01:13:21.896Z,14.70
2023-05-12T01:15:50.731Z,14.74
2023-05-12T01:18:20.473Z,14.74
2023-05-12T01:20:50.558Z,14.74
2023-05-12T01:23:19.083Z,14.71
2023-05-12T01:25:46.516Z,14.69
2023-05-12T01:28:15.534Z,14.67
2023-05-12T01:30:42.212Z,14.66
2023-05-12T01:33:10.383Z,14.64
2023-05-12T01:35:37.662Z,14.65
2023-05-12T01:38:04.399Z,14.63
2023-05-12T01:40:34.551Z,14.65
2023-05-12T01:43:01.797Z,14.65
2023-05-12T01:45:32.136Z,14.65
2023-05-12T01:47:59.113Z,14.62
2023-05-12T01:50:25.791Z,14.54
2023-05-12T01:52:52.438Z,14.54
2023-05-12T01:55:20.125Z,14.50
2023-05-12T01:57:51.878Z,14.51
2023-05-12T02:00:22.218Z,14.53
2023-05-12T02:02:51.726Z,14.57
2023-05-12T02:05:20.712Z,14.60
2023-05-12T02:07:50.327Z,14.56
2023-05-12T02:10:18.009Z,14.59
2023-05-12T02:12:47.733Z,14.57
2023-05-12T02:15:14.525Z,14.62
2023-05-12T02:17:46.199Z,14.65
2023-05-12T02:20:14.780Z,14.67
2023-05-12T02:22:42.939Z,14.68
2023-05-12T02:25:09.562Z,14.70
2023-05-12T02:27:38.988Z,14.73
2023-05-12T02:30:06.692Z,14.79
2023-05-12T02:32:38.829Z,14.77
2023-05-12T02:35:07.598Z,14.74
2023-05-12T02:37:36.270Z,14.72
2023-05-12T02:40:08.383Z,14.66
2023-05-12T02:42:36.255Z,14.62
2023-05-12T02:45:05.463Z,14.58
2023-05-12T02:47:34.491Z,14.53
2023-05-12T02:50:03.585Z,14.49
2023-05-12T02:52:34.224Z,14.48
2023-05-12T02:55:01.387Z,14.47
2023-05-12T02:57:34.077Z,14.45
2023-05-12T03:00:06.743Z,14.45
2023-05-12T03:02:40.097Z,14.40
2023-05-12T03:05:08.524Z,14.36
2023-05-12T03:07:38.497Z,14.33
2023-05-12T03:10:06.048Z,14.30
2023-05-12T03:12:32.737Z,14.31
2023-05-12T03:15:02.334Z,14.31
2023-05-12T03:17:28.950Z,14.32
2023-05-12T03:19:58.062Z,14.31
2023-05-12T03:22:24.835Z,14.27
2023-05-12T03:24:56.338Z,14.27
2023-05-12T03:27:23.159Z,14.28
2023-05-12T03:29:50.251Z,14.29
2023-05-12T03:32:16.873Z,14.28
2023-05-12T03:34:46.102Z,14.28
2023-05-12T03:37:12.771Z,14.28
2023-05-12T03:39:39.556Z,14.26
2023-05-12T03:42:06.425Z,14.22
2023-05-12T03:44:36.199Z,14.20
2023-05-12T03:47:05.827Z,14.12
2023-05-12T03:49:36.182Z,14.11
2023-05-12T03:52:03.230Z,14.08
2023-05-12T03:54:32.470Z,14.14
2023-05-12T03:57:01.666Z,14.08
2023-05-12T03:59:30.974Z,14.05
2023-05-12T04:01:57.736Z,14.10
2023-05-12T04:04:24.589Z,14.07
2023-05-12T04:06:51.250Z,14.07
2023-05-12T04:09:19.010Z,14.11
2023-05-12T04:11:48.633Z,14.16
2023-05-12T04:14:20.440Z,14.18
2023-05-12T04:16:50.080Z,14.20
2023-05-12T04:19:17.141Z,14.25
2023-05-12T04:21:43.975Z,14.27
2023-05-12T04:24:10.694Z,14.29
2023-05-12T04:26:37.708Z,14.30
2023-05-12T04:29:06.788Z,14.35
2023-05-12T04:31:33.922Z,14.33
2023-05-12T04:34:02.829Z,14.35
2023-05-12T04:36:31.516Z,14.40
2023-05-12T04:38:58.492Z,14.47
2023-05-12T04:41:25.615Z,14.51
2023-05-12T04:46:22.411Z,14.59
2023-05-12T04:48:51.981Z,14.65
2023-05-12T04:51:18.653Z,14.70
2023-05-12T04:53:45.915Z,14.76
2023-05-12T04:56:12.535Z,14.80
2023-05-12T04:58:39.262Z,14.81
2023-05-12T05:01:09.654Z,14.83
2023-05-12T05:03:36.759Z,14.86
2023-05-12T05:06:04.002Z,14.90
2023-05-12T05:08:31.229Z,14.94
2023-05-12T05:11:00.061Z,14.98
2023-05-12T05:13:28.188Z,15.00
2023-05-12T05:15:57.630Z,15.02
2023-05-12T05:18:32.015Z,15.04
2023-05-12T05:20:59.306Z,15.02
2023-05-12T05:23:27.335Z,15.09
2023-05-12T05:25:54.810Z,15.17
2023-05-12T05:28:22.019Z,15.25
2023-05-12T05:30:48.712Z,15.23
2023-05-12T05:33:15.396Z,15.21
2023-05-12T05:35:42.604Z,15.16
2023-05-12T05:38:10.868Z,15.16
2023-05-12T05:40:52.262Z,15.14
2023-05-12T05:43:21.340Z,15.12
2023-05-12T05:45:50.072Z,15.15
2023-05-12T05:48:20.957Z,15.28
2023-05-12T05:50:48.268Z,15.30
2023-05-12T05:53:15.208Z,15.32
2023-05-12T05:55:42.910Z,15.32
2023-05-12T05:58:12.104Z,15.30
2023-05-12T06:00:41.570Z,15.34
2023-05-12T06:03:11.065Z,15.39
2023-05-12T06:05:37.974Z,15.42
2023-05-12T06:08:05.394Z,15.45
2023-05-12T06:10:34.948Z,15.49
2023-05-12T06:13:04.741Z,15.55
2023-05-12T06:15:35.468Z,15.55
2023-05-12T06:18:06.982Z,15.57
2023-05-12T06:20:36.413Z,15.61
2023-05-12T06:23:03.150Z,15.65
2023-05-12T06:25:29.778Z,15.69
2023-05-12T06:27:56.451Z,15.76
2023-05-12T06:30:23.496Z,15.80
2023-05-12T06:32:59.660Z,15.80
2023-05-12T06:35:27.706Z,15.81
2023-05-12T06:37:59.294Z,15.82
2023-05-12T06:40:26.029Z,15.83
2023-05-12T06:42:53.175Z,15.86
2023-05-12T06:45:23.874Z,15.91
2023-05-12T06:47:51.323Z,15.95
2023-05-12T06:50:20.853Z,15.96
2023-05-12T06:52:54.283Z,15.98
2023-05-12T06:55:21.183Z,16.01
2023-05-12T06:57:48.079Z,16.11
2023-05-12T07:00:15.205Z,16.15
2023-05-12T07:02:42.079Z,16.12
2023-05-12T07:05:10.997Z,16.13
2023-05-12T07:07:40.010Z,16.20
2023-05-12T07:10:10.079Z,16.27
2023-05-12T07:12:39.882Z,16.27
2023-05-12T07:15:06.944Z,16.28
2023-05-12T07:17:33.654Z,16.36
2023-05-12T07:20:05.817Z,16.41
2023-05-12T07:22:32.797Z,16.41
2023-05-12T07:24:59.932Z,16.51
2023-05-12T07:27:26.997Z,16.57
2023-05-12T07:29:56.097Z,16.59
2023-05-12T07:32:23.099Z,16.61
2023-05-12T07:34:53.566Z,16.62
2023-05-12T07:37:22.910Z,16.61
2023-05-12T07:39:49.894Z,16.60
2023-05-12T07:42:16.530Z,16.67
2023-05-12T07:44:43.123Z,16.67
2023-05-12T07:47:09.839Z,16.62
2023-05-12T07:49:36.528Z,16.59
2023-05-12T07:52:03.289Z,16.54
2023-05-12T07:54:30.150Z,16.50
2023-05-12T07:56:57.150Z,16.47
2023-05-12T07:59:24.115Z,16.43
2023-05-12T08:01:54.059Z,16.44
2023-05-12T08:04:22.632Z,16.51
2023-05-12T08:06:52.424Z,16.54
2023-05-12T08:09:19.139Z,16.62
2023-05-12T08:11:48.083Z,16.70
2023-05-12T08:14:19.014Z,16.69
2023-05-12T08:16:51.092Z,16.67
2023-05-12T08:19:18.053Z,16.66
2023-05-12T08:21:47.098Z,16.64
2023-05-12T08:24:13.762Z,16.64
2023-05-12T08:26:42.712Z,16.66
2023-05-12T08:29:12.153Z,16.66
2023-05-12T08:31:39.343Z,16.78
2023-05-12T08:34:11.158Z,16.88
2023-05-12T08:36:38.783Z,16.99
2023-05-12T08:39:05.649Z,17.19
2023-05-12T08:41:37.221Z,17.32
2023-05-12T08:44:03.859Z,17.39
2023-05-12T08:46:33.821Z,17.45
2023-05-12T08:49:02.142Z,17.38
2023-05-12T08:51:29.392Z,17.35
2023-05-12T08:53:56.282Z,17.32
2023-05-12T08:58:55.098Z,17.08
2023-05-12T09:01:24.025Z,17.08
2023-05-12T09:03:53.992Z,17.01
2023-05-12T09:06:23.109Z,16.97
2023-05-12T09:08:52.246Z,16.94
2023-05-12T09:11:18.878Z,16.89
2023-05-12T09:13:55.484Z,16.80
2023-05-12T09:16:23.802Z,16.63
2023-05-12T09:18:50.723Z,16.48
2023-05-12T09:21:17.729Z,16.39
2023-05-12T09:23:59.104Z,16.29
2023-05-12T09:26:26.894Z,16.17
2023-05-12T09:29:06.493Z,16.08
2023-05-12T09:31:36.211Z,15.94
2023-05-12T09:34:07.196Z,15.74
2023-05-12T09:36:34.474Z,15.84
2023-05-12T09:39:05.124Z,15.86
2023-05-12T09:41:37.083Z,15.85
2023-05-12T09:44:04.079Z,15.79
2023-05-12T09:46:31.076Z,15.75
2023-05-12T09:49:00.407Z,15.75
2023-05-12T09:51:27.145Z,15.73
2023-05-12T09:53:54.262Z,15.75
2023-05-12T09:56:21.351Z,15.81
2023-05-12T09:58:48.948Z,15.82
2023-05-12T10:01:22.799Z,15.85
2023-05-12T10:03:53.602Z,15.85
2023-05-12T10:06:30.507Z,15.80
2023-05-12T10:09:05.659Z,15.71
2023-05-12T10:11:32.419Z,15.57
2023-05-12T10:14:02.659Z,15.51
2023-05-12T10:16:31.856Z,15.42
2023-05-12T10:18:58.584Z,15.39
2023-05-12T10:21:26.526Z,15.39
2023-05-12T10:23:53.310Z,15.40
2023-05-12T10:26:22.189Z,15.52
2023-05-12T10:28:48.971Z,15.56
2023-05-12T10:31:16.142Z,15.56
2023-05-12T10:33:42.725Z,15.65
2023-05-12T10:36:19.377Z,15.76
2023-05-12T10:38:47.748Z,15.74
2023-05-12T10:41:14.383Z,15.76
2023-05-12T10:43:47.056Z,15.84
2023-05-12T10:46:21.002Z,15.86
2023-05-12T10:48:58.722Z,15.88
2023-05-12T10:51:28.564Z,15.74
2023-05-12T10:54:01.614Z,15.74
2023-05-12T10:56:29.563Z,15.72
2023-05-12T10:59:14.774Z,15.67
2023-05-12T11:02:05.549Z,15.75
2023-05-12T11:04:37.608Z,15.69
2023-05-12T11:07:08.347Z,15.68
2023-05-12T11:09:53.137Z,15.76
2023-05-12T11:12:24.559Z,15.86
2023-05-12T11:14:53.626Z,15.99
2023-05-12T11:17:20.433Z,15.97
2023-05-12T11:19:48.080Z,15.98
2023-05-12T11:22:19.904Z,16.14
2023-05-12T11:24:47.417Z,16.27
2023-05-12T11:27:15.034Z,16.29
2023-05-12T11:29:42.435Z,16.34
2023-05-12T11:32:12.734Z,16.29
2023-05-12T11:34:39.396Z,16.20
2023-05-12T11:37:06.731Z,16.09
2023-05-12T11:39:35.684Z,16.06
2023-05-12T11:42:13.625Z,16.06
2023-05-12T11:44:53.029Z,16.07
2023-05-12T11:47:20.089Z,16.11
2023-05-12T11:49:51.157Z,16.06
2023-05-12T11:52:19.576Z,16.05
2023-05-12T11:54:52.228Z,16.07
2023-05-12T11:57:26.804Z,16.08
2023-05-12T12:00:00.633Z,16.11
2023-05-12T12:02:30.165Z,16.12
2023-05-12T12:04:59.178Z,16.07
2023-05-12T12:07:32.059Z,16.09
2023-05-12T12:09:59.204Z,16.17
2023-05-12T12:12:25.860Z,16.20
2023-05-12T12:14:52.692Z,16.20
2023-05-12T12:17:30.315Z,16.23
2023-05-12T12:19:57.305Z,16.20
2023-05-12T12:22:26.275Z,16.16
2023-05-12T12:24:55.429Z,16.05
2023-05-12T12:27:25.230Z,15.98
2023-05-12T12:29:52.075Z,15.96
2023-05-12T12:32:18.668Z,15.87
2023-05-12T12:34:50.882Z,15.87
2023-05-12T12:37:20.106Z,15.84
2023-05-12T12:39:49.011Z,15.79
2023-05-12T12:42:15.823Z,15.76
2023-05-12T12:44:42.761Z,15.74
2023-05-12T12:47:09.594Z,15.68
2023-05-12T12:49:40.909Z,15.62
2023-05-12T12:52:08.729Z,15.53
2023-05-12T12:54:41.348Z,15.39
2023-05-12T12:57:10.977Z,15.33
2023-05-12T12:59:40.424Z,15.28
2023-05-12T13:02:09.277Z,15.28
2023-05-12T13:04:40.642Z,15.32
2023-05-12T13:07:10.906Z,15.36
2023-05-12T13:09:38.773Z,15.36
2023-05-12T13:12:08.417Z,15.35
2023-05-12T13:14:44.818Z,15.27
2023-05-12T13:17:11.523Z,15.23
2023-05-12T13:19:40.760Z,15.32
2023-05-12T13:22:12.457Z,15.34
2023-05-12T13:24:39.272Z,15.34
2023-05-12T13:27:11.588Z,15.33
2023-05-12T13:29:42.397Z,15.29
2023-05-12T13:32:09.110Z,15.26
2023-05-12T13:34:35.686Z,15.22
2023-05-12T13:37:02.315Z,15.27
2023-05-12T13:39:28.996Z,15.26
2023-05-12T13:41:58.254Z,15.24
2023-05-12T13:44:24.953Z,15.24
2023-05-12T13:46:52.704Z,15.22
2023-05-12T13:49:24.326Z,15.21
2023-05-12T13:51:53.090Z,15.18
2023-05-12T13:54:19.924Z,15.13
2023-05-12T13:56:49.010Z,15.14
2023-05-12T13:59:18.004Z,15.14
2023-05-12T14:01:47.203Z,15.16
2023-05-12T14:04:14.418Z,15.18
2023-05-12T14:06:41.017Z,15.20
2023-05-12T14:09:13.678Z,15.18
2023-05-12T14:11:43.034Z,15.12
2023-05-12T14:14:09.750Z,15.09
2023-05-12T14:16:41.672Z,15.03
2023-05-12T14:19:08.362Z,15.04
2023-05-12T14:21:34.975Z,15.01
2023-05-12T14:24:01.984Z,14.99
2023-05-12T14:26:28.646Z,14.99
2023-05-12T14:28:58.075Z,14.95
2023-05-12T14:31:27.456Z,14.90
2023-05-12T14:33:54.172Z,14.82
2023-05-12T14:36:20.899Z,14.79
2023-05-12T14:38:49.190Z,14.79
2023-05-12T14:41:16.292Z,14.82
2023-05-12T14:43:43.005Z,14.82
2023-05-12T14:46:12.073Z,14.78
2023-05-12T14:48:39.276Z,14.76
2023-05-12T14:51:10.657Z,14.68
2023-05-12T14:53:37.365Z,14.69
2023-05-12T14:56:04.044Z,14.71
2023-05-12T14:58:33.024Z,14.68
2023-05-12T15:01:02.065Z,14.70
2023-05-12T15:03:29.158Z,14.70
2023-05-12T15:06:05.701Z,14.70
2023-05-12T15:08:33.575Z,14.69
2023-05-12T15:11:00.229Z,14.73
2023-05-12T15:13:29.808Z,14.73
2023-05-12T15:15:57.090Z,14.73
2023-05-12T15:18:24.078Z,14.66
2023-05-12T15:20:50.897Z,14.62
2023-05-12T15:23:17.597Z,14.59
2023-05-12T15:25:46.537Z,14.58
2023-05-12T15:28:15.614Z,14.59
2023-05-12T15:30:42.266Z,14.60
2023-05-12T15:33:08.955Z,14.62
2023-05-12T15:35:40.796Z,14.60
2023-05-12T15:38:07.726Z,14.61
2023-05-12T15:40:34.619Z,14.62
2023-05-12T15:43:01.668Z,14.63
2023-05-12T15:45:28.313Z,14.66
2023-05-12T15:47:57.979Z,14.64
2023-05-12T15:50:24.694Z,14.65
2023-05-12T15:52:53.632Z,14.69
2023-05-12T15:55:22.757Z,14.69
2023-05-12T15:57:54.297Z,14.68
2023-05-12T16:00:22.685Z,14.65
2023-05-12T16:02:51.826Z,14.68
2023-05-12T16:05:21.424Z,14.67
2023-05-12T16:07:50.606Z,14.65
2023-05-12T16:10:21.242Z,14.67
2023-05-12T16:12:48.383Z,14.66
2023-05-12T16:15:15.001Z,14.68
2023-05-12T16:17:41.686Z,14.67
2023-05-12T16:20:13.123Z,14.69
2023-05-12T16:22:44.917Z,14.68
2023-05-12T16:25:11.582Z,14.68
2023-05-12T16:27:40.696Z,14.68
2023-05-12T16:30:09.683Z,14.64
2023-05-12T16:32:36.845Z,14.63
2023-05-12T16:35:04.082Z,14.56
2023-05-12T16:37:30.813Z,14.50
2023-05-12T16:39:57.579Z,14.49
2023-05-12T16:42:29.778Z,14.48
2023-05-12T16:44:56.398Z,14.49
2023-05-12T16:47:23.515Z,14.42
2023-05-12T16:49:57.774Z,14.42
2023-05-12T16:52:24.841Z,14.44
2023-05-12T16:54:51.927Z,14.45
2023-05-12T16:57:18.821Z,14.44
2023-05-12T16:59:48.262Z,14.41
2023-05-12T17:02:17.748Z,14.40
2023-05-12T17:04:44.812Z,14.39
2023-05-12T17:07:11.544Z,14.35
2023-05-12T17:09:38.162Z,14.31
2023-05-12T17:12:06.809Z,14.25
2023-05-12T17:14:34.987Z,14.21
2023-05-12T17:17:02.322Z,14.22
2023-05-12T17:19:29.154Z,14.21
2023-05-12T17:21:55.904Z,14.21
2023-05-12T17:24:24.954Z,14.18
2023-05-12T17:26:51.657Z,14.17
2023-05-12T17:29:18.352Z,14.19
2023-05-12T17:31:45.061Z,14.19
2023-05-12T17:34:11.765Z,14.16
2023-05-12T17:36:40.780Z,14.13
2023-05-12T17:39:07.532Z,14.10
2023-05-12T17:41:34.213Z,14.09
2023-05-12T17:44:03.321Z,14.07
2023-05-12T17:46:29.927Z,14.03
2023-05-12T17:48:59.438Z,14.05
2023-05-12T17:51:30.486Z,14.03
2023-05-12T17:53:57.087Z,14.02
2023-05-12T17:56:26.603Z,13.99
2023-05-12T17:58:56.270Z,13.94
2023-05-12T18:01:25.440Z,13.92
2023-05-12T18:03:54.538Z,13.87
2023-05-12T18:06:21.591Z,13.82
2023-05-12T18:08:48.595Z,13.81
2023-05-12T18:11:16.281Z,13.79
2023-05-12T18:13:42.930Z,13.80
2023-05-12T18:16:21.724Z,13.78
2023-05-12T18:18:54.843Z,13.72
2023-05-12T18:21:21.499Z,13.71
2023-05-12T18:23:48.106Z,13.65
2023-05-12T18:26:14.668Z,13.67
2023-05-12T18:28:43.599Z,13.65
2023-05-12T18:31:15.506Z,13.65
2023-05-12T18:33:43.528Z,13.70
2023-05-12T18:36:10.634Z,13.70
2023-05-12T18:38:40.242Z,13.70
2023-05-12T18:41:10.388Z,13.69
2023-05-12T18:43:39.500Z,13.68
2023-05-12T18:46:06.523Z,13.66
2023-05-12T18:48:33.192Z,13.67
2023-05-12T18:50:59.929Z,13.67
2023-05-12T18:53:26.574Z,13.67
2023-05-12T18:55:53.258Z,13.67
2023-05-12T18:58:19.971Z,13.65
2023-05-12T19:00:46.989Z,13.67
2023-05-12T19:03:14.023Z,13.69
2023-05-12T19:05:45.546Z,13.71
2023-05-12T19:08:12.859Z,13.70
2023-05-12T19:10:40.121Z,13.70
2023-05-12T19:13:08.530Z,13.70
2023-05-12T19:15:38.690Z,13.62
2023-05-12T19:18:05.685Z,13.63
2023-05-12T19:20:32.519Z,13.66
2023-05-12T19:23:02.727Z,13.68
2023-05-12T19:25:32.677Z,13.67
2023-05-12T19:27:59.598Z,13.61
2023-05-12T19:30:27.934Z,13.60
2023-05-12T19:32:59.422Z,13.63
2023-05-12T19:35:28.511Z,13.59
2023-05-12T19:37:55.226Z,13.64
2023-05-12T19:40:30.697Z,13.64
2023-05-12T19:42:57.612Z,13.63
2023-05-12T19:45:24.386Z,13.65
2023-05-12T19:47:52.206Z,13.65
2023-05-12T19:50:20.216Z,13.65
2023-05-12T19:52:46.881Z,13.62
2023-05-12T19:55:13.537Z,13.61
2023-05-12T19:57:40.488Z,13.62
2023-05-12T20:00:10.085Z,13.60
2023-05-12T20:02:40.018Z,13.64
2023-05-12T20:05:07.072Z,13.63
2023-05-12T20:07:34.210Z,13.63
2023-05-12T20:10:04.158Z,13.69
2023-05-12T20:12:30.905Z,13.71
2023-05-12T20:14:57.524Z,13.73
2023-05-12T20:17:24.204Z,13.75
2023-05-12T20:19:57.024Z,13.79
2023-05-12T20:22:23.938Z,13.76
2023-05-12T20:24:51.405Z,13.73
2023-05-12T20:27:20.615Z,13.68
2023-05-12T20:29:47.197Z,13.66
2023-05-12T20:32:16.394Z,13.65
2023-05-12T20:34:43.440Z,13.67
2023-05-12T20:37:10.451Z,13.67
2023-05-12T20:39:39.509Z,13.72
2023-05-12T20:42:06.447Z,13.72
2023-05-12T20:44:38.008Z,13.74
2023-05-12T20:47:04.767Z,13.71
2023-05-12T20:49:34.112Z,13.72
2023-05-12T20:52:00.751Z,13.71
2023-05-12T20:54:29.824Z,13.73
2023-05-12T20:56:56.422Z,13.74
2023-05-12T20:59:26.198Z,13.75
2023-05-12T21:01:52.896Z,13.79
2023-05-12T21:04:22.041Z,13.79
2023-05-12T21:06:53.353Z,13.77
2023-05-12T21:09:20.474Z,13.77
2023-05-12T21:11:47.287Z,13.79
2023-05-12T21:14:14.103Z,13.78
2023-05-12T21:16:45.909Z,13.77
2023-05-12T21:19:17.547Z,13.75
2023-05-12T21:21:44.229Z,13.75
2023-05-12T21:24:13.278Z,13.71
2023-05-12T21:26:40.096Z,13.70
2023-05-12T21:29:06.652Z,13.72
2023-05-12T21:31:33.326Z,13.70
2023-05-12T21:34:00.057Z,13.73
2023-05-12T21:36:27.054Z,13.71
2023-05-12T21:38:55.782Z,13.68
2023-05-12T21:41:22.539Z,13.71
2023-05-12T21:43:49.166Z,13.73
2023-05-12T21:46:18.264Z,13.71
2023-05-12T21:48:44.963Z,13.65
2023-05-12T21:51:14.174Z,13.62
2023-05-12T21:53:43.844Z,13.57
2023-05-12T21:56:10.485Z,13.60
2023-05-12T21:58:37.121Z,13.62
2023-05-12T22:01:06.297Z,13.63
2023-05-12T22:03:33.183Z,13.63
2023-05-12T22:05:59.824Z,13.62
2023-05-12T22:08:26.503Z,13.65
2023-05-12T22:10:53.080Z,13.64
2023-05-12T22:13:20.261Z,13.67
2023-05-12T22:15:46.951Z,13.69
2023-05-12T22:18:13.970Z,13.69
2023-05-12T22:20:41.250Z,13.71
2023-05-12T22:23:07.955Z,13.72
2023-05-12T22:25:34.558Z,13.68
2023-05-12T22:28:04.860Z,13.67
2023-05-12T22:30:33.346Z,13.67
2023-05-12T22:33:02.440Z,13.70
2023-05-12T22:35:29.394Z,13.71
2023-05-12T22:37:56.079Z,13.71
2023-05-12T22:40:27.011Z,13.72
2023-05-12T22:42:55.952Z,13.72
2023-05-12T22:45:22.530Z,13.77
2023-05-12T22:47:51.647Z,13.80
2023-05-12T22:50:18.842Z,13.80
2023-05-12T22:52:46.443Z,13.76
2023-05-12T22:55:15.533Z,13.73
2023-05-12T22:57:43.878Z,13.73
2023-05-12T23:00:13.345Z,13.76
2023-05-12T23:02:40.363Z,13.78
2023-05-12T23:05:07.474Z,13.80
2023-05-12T23:07:33.995Z,13.79
2023-05-12T23:10:03.873Z,13.79
2023-05-12T23:12:30.601Z,13.74
2023-05-12T23:14:57.198Z,13.74
2023-05-12T23:17:26.290Z,13.72
2023-05-12T23:19:53.538Z,13.71
2023-05-12T23:22:20.365Z,13.73
2023-05-12T23:24:47.268Z,13.72
2023-05-12T23:27:13.940Z,13.72
2023-05-12T23:29:40.533Z,13.71
2023-05-12T23:32:07.308Z,13.72
2023-05-12T23:34:40.194Z,13.74
2023-05-12T23:37:07.330Z,13.77
2023-05-12T23:39:33.991Z,13.77
2023-05-12T23:42:01.227Z,13.76
2023-05-12T23:44:27.995Z,12.80
2023-05-12T23:46:56.896Z,13.75
2023-05-12T23:49:23.634Z,13.76
2023-05-12T23:51:50.268Z,13.73
2023-05-12T23:54:16.880Z,13.72
2023-05-12T23:56:44.023Z,13.71
2023-05-12T23:59:10.714Z,13.71
